Time;durP1;ratioP1;P1;durP2;ratioP2;P2;SDS_P1;SDS_P2;PMS_P1;PMS_P2;Temp;Humidity;BMP_temperature;BMP_pressure;BME280_temperature;BME280_humidity;BME280_pressure;Samples;Min_cycle;Max_cycle;Signal;HPM_P1;HPM_P2
2021/11/18 00:02:07;;;;;;;;;79.75;64.50;;;;;-1.88;67.74;102385.56;4915171;29;8885;-70
2021/11/18 00:05:03;;;;;;;;;81.25;61.50;;;;;-1.73;66.83;102389.75;4935052;29;8830;-70
2021/11/18 00:08:01;;;;;;;;;73.00;58.25;;;;;-1.58;66.72;102388.72;4934872;29;8858;-71
2021/11/18 00:11:03;;;;;;;;;83.00;66.00;;;;;-1.55;67.04;102389.13;4934441;29;8838;-70
2021/11/18 00:13:58;;;;;;;;;74.00;60.25;;;;;-1.43;66.30;102392.88;4934799;29;9052;-70
2021/11/18 00:16:54;;;;;;;;;75.75;63.75;;;;;-1.62;66.60;102393.69;4934879;29;8854;-71
2021/11/18 00:19:49;;;;;;;;;98.75;72.25;;;;;-1.90;67.69;102393.91;4934784;29;8885;-71
2021/11/18 00:22:32;;;;;;;;;89.00;71.00;;;;;-1.92;67.19;102389.72;4935701;29;8835;-71
2021/11/18 00:25:28;;;;;;;;;89.75;67.00;;;;;-1.96;67.86;102389.31;4933466;29;8968;-71
2021/11/18 00:28:23;;;;;;;;;101.25;75.75;;;;;-2.08;67.84;102382.81;4934758;29;8831;-70
2021/11/18 00:31:23;;;;;;;;;90.00;69.25;;;;;-2.01;68.11;102379.06;4934455;29;8846;-70
2021/11/18 00:34:19;;;;;;;;;92.50;74.50;;;;;-2.22;68.58;102381.97;4916401;29;8867;-70
2021/11/18 00:37:15;;;;;;;;;91.50;67.00;;;;;-2.35;68.73;102380.03;4915663;29;8861;-70
2021/11/18 00:40:12;;;;;;;;;88.00;68.50;;;;;-2.24;68.64;102384.00;4921881;29;8862;-70
2021/11/18 00:43:10;;;;;;;;;76.75;61.75;;;;;-2.53;69.56;102377.91;4934459;29;8858;-70
2021/11/18 00:46:06;;;;;;;;;100.50;74.50;;;;;-2.34;69.74;102378.16;4933993;29;8858;-70
2021/11/18 00:49:04;;;;;;;;;93.75;70.50;;;;;-2.34;69.39;102379.00;4919618;29;8846;-70
2021/11/18 00:51:59;;;;;;;;;106.25;78.50;;;;;-2.62;69.83;102370.13;4937965;29;8842;-70
2021/11/18 00:54:55;;;;;;;;;110.75;82.50;;;;;-2.71;70.78;102364.06;4937957;29;11476;-70
2021/11/18 00:57:31;;;;;;;;;104.75;76.50;;;;;-2.73;70.25;102366.13;4938977;29;8834;-70
2021/11/18 01:00:30;;;;;;;;;95.25;75.50;;;;;-3.15;72.62;102376.09;4936656;29;8881;-71
2021/11/18 01:03:27;;;;;;;;;94.25;73.00;;;;;-3.06;72.32;102370.56;4937633;29;9687;-71
2021/11/18 01:06:22;;;;;;;;;100.75;76.50;;;;;-2.81;71.39;102369.84;4937585;29;8839;-71
2021/11/18 01:09:18;;;;;;;;;96.00;76.00;;;;;-2.79;71.66;102372.34;4937763;29;8838;-71
2021/11/18 01:12:14;;;;;;;;;95.00;72.00;;;;;-3.00;71.67;102367.88;4937429;29;9624;-71
2021/11/18 01:15:14;;;;;;;;;98.50;77.50;;;;;-2.95;71.71;102361.88;4938377;29;8917;-70
2021/11/18 01:18:10;;;;;;;;;94.25;72.50;;;;;-3.05;72.04;102364.94;4937221;29;8874;-70
2021/11/18 01:21:07;;;;;;;;;110.75;78.25;;;;;-3.03;71.78;102373.69;4937562;29;8870;-71
2021/11/18 01:24:04;;;;;;;;;105.75;73.50;;;;;-3.04;71.69;102365.78;4937644;29;8851;-71
2021/11/18 01:27:00;;;;;;;;;94.75;75.25;;;;;-2.99;72.59;102357.88;4937023;29;8953;-71
2021/11/18 01:29:55;;;;;;;;;111.00;86.25;;;;;-2.92;71.80;102364.16;4937090;29;8987;-71
2021/11/18 01:32:53;;;;;;;;;111.00;89.50;;;;;-3.12;71.52;102364.91;4937024;29;8850;-71
2021/11/18 01:35:25;;;;;;;;;112.50;87.25;;;;;-3.13;71.58;102365.94;4937672;29;8850;-71
2021/11/18 01:38:21;;;;;;;;;115.75;87.75;;;;;-3.04;71.89;102365.78;4937240;29;8858;-70
2021/11/18 01:41:23;;;;;;;;;112.00;98.00;;;;;-2.92;70.74;102366.88;4943113;28;8955;-71
2021/11/18 01:44:37;;;;;;;;;111.50;85.25;;;;;-2.88;70.67;102370.84;4918416;29;8871;-71
2021/11/18 01:47:10;;;;;;;;;117.50;91.25;;;;;-2.96;70.89;102368.31;4919246;29;8857;-71
2021/11/18 01:50:08;;;;;;;;;111.75;88.25;;;;;-2.86;70.10;102363.38;4933924;29;8879;-71
2021/11/18 01:53:13;;;;;;;;;135.75;106.50;;;;;-2.95;70.53;102365.41;4937851;29;8839;-71
2021/11/18 01:56:12;;;;;;;;;116.00;93.50;;;;;-2.89;70.33;102356.50;4936609;29;9548;-71
2021/11/18 01:59:18;;;;;;;;;119.25;104.75;;;;;-2.82;69.72;102360.06;4935736;29;9702;-72
2021/11/18 02:02:16;;;;;;;;;117.75;97.00;;;;;-2.80;70.22;102368.81;4935634;29;8854;-71
2021/11/18 02:05:30;;;;;;;;;129.75;111.50;;;;;-2.76;70.03;102374.69;4937303;29;8858;-71
2021/11/18 02:08:27;;;;;;;;;115.75;97.00;;;;;-2.92;70.86;102380.41;4918544;29;8909;-71
2021/11/18 02:11:38;;;;;;;;;113.25;99.50;;;;;-2.87;70.45;102369.81;4936443;29;8999;-71
2021/11/18 02:14:36;;;;;;;;;123.00;109.50;;;;;-2.96;70.82;102373.72;4935178;28;8846;-71
2021/11/18 02:17:07;;;;;;;;;123.00;106.00;;;;;-3.05;71.28;102366.81;4937419;29;9618;-71
2021/11/18 02:20:04;;;;;;;;;114.50;97.25;;;;;-3.12;71.08;102367.59;4922614;29;8866;-71
2021/11/18 02:23:08;;;;;;;;;121.00;100.00;;;;;-3.13;71.26;102373.22;4935531;29;8964;-71
2021/11/18 02:26:04;;;;;;;;;117.50;98.25;;;;;-3.15;70.65;102368.00;4935848;29;8929;-71
2021/11/18 02:29:05;;;;;;;;;115.75;101.25;;;;;-2.96;70.65;102371.03;4936227;29;9627;-70
2021/11/18 02:32:09;;;;;;;;;107.00;79.75;;;;;-3.16;70.88;102370.91;4936264;29;8838;-72
2021/11/18 02:35:10;;;;;;;;;114.75;92.75;;;;;-2.95;70.40;102369.97;4936291;29;8959;-71
2021/11/18 02:38:07;;;;;;;;;112.75;99.00;;;;;-2.95;70.40;102369.97;4935994;29;8923;-72
2021/11/18 02:41:05;;;;;;;;;118.00;104.50;;;;;-3.00;70.72;102372.44;4936188;29;8839;-72
2021/11/18 02:44:01;;;;;;;;;103.25;83.75;;;;;-3.22;70.58;102369.84;4936174;29;8846;-72
2021/11/18 02:46:56;;;;;;;;;119.50;99.50;;;;;-3.26;71.64;102368.56;4936563;29;8861;-72
2021/11/18 02:49:54;;;;;;;;;111.00;98.25;;;;;-3.12;71.17;102359.50;4935978;29;8846;-72
2021/11/18 02:52:50;;;;;;;;;123.00;111.75;;;;;-3.03;70.22;102357.44;4935932;29;8834;-73
2021/11/18 02:55:48;;;;;;;;;138.00;111.75;;;;;-3.25;71.38;102353.16;4936329;29;9610;-72
2021/11/18 02:58:21;;;;;;;;;111.00;95.50;;;;;-3.36;71.78;102341.03;4936607;29;9060;-72
2021/11/18 03:01:24;;;;;;;;;117.00;102.50;;;;;-3.48;71.82;102343.44;4936637;29;8858;-72
2021/11/18 03:04:20;;;;;;;;;119.25;111.00;;;;;-3.26;71.65;102348.78;4935870;29;8842;-72
2021/11/18 03:07:15;;;;;;;;;124.25;109.75;;;;;-3.38;72.26;102338.50;4935519;29;8869;-72
2021/11/18 03:10:12;;;;;;;;;129.00;116.50;;;;;-3.25;72.50;102336.91;4935621;29;8834;-72
2021/11/18 03:13:08;;;;;;;;;112.00;87.00;;;;;-3.41;72.34;102344.31;4935671;29;8874;-72
2021/11/18 03:16:05;;;;;;;;;114.50;87.25;;;;;-3.30;72.51;102342.91;4935927;29;8858;-72
2021/11/18 03:19:01;;;;;;;;;116.25;102.50;;;;;-3.37;72.84;102339.34;4917434;29;8845;-72
2021/11/18 03:21:56;;;;;;;;;114.75;86.75;;;;;-3.24;72.38;102350.25;4916375;29;8880;-71
2021/11/18 03:24:52;;;;;;;;;114.25;100.50;;;;;-3.36;72.84;102349.97;4916524;29;8848;-71
2021/11/18 03:27:48;;;;;;;;;108.00;92.25;;;;;-3.31;72.94;102353.94;4927616;29;8850;-72
2021/11/18 03:30:46;;;;;;;;;80.25;54.00;;;;;-3.27;72.96;102358.78;4935222;29;8933;-72
2021/11/18 03:33:48;;;;;;;;;104.50;83.75;;;;;-3.47;73.45;102365.91;4923610;29;8898;-71
2021/11/18 03:36:44;;;;;;;;;101.50;81.00;;;;;-3.12;71.47;102367.59;4935836;29;8882;-72
2021/11/18 03:39:40;;;;;;;;;80.75;60.75;;;;;-3.21;72.14;102359.84;4934386;29;8870;-71
2021/11/18 03:42:11;;;;;;;;;107.75;86.50;;;;;-3.23;71.70;102364.59;4936441;29;8866;-72
2021/11/18 03:45:09;;;;;;;;;112.75;98.75;;;;;-3.35;72.09;102356.22;4935248;29;8934;-73
2021/11/18 03:47:40;;;;;;;;;109.00;96.00;;;;;-3.20;71.79;102348.81;4936310;29;8874;-72
2021/11/18 03:50:36;;;;;;;;;109.00;90.00;;;;;-3.14;72.20;102347.19;4925246;29;8846;-74
2021/11/18 03:53:36;;;;;;;;;133.50;109.00;;;;;-3.08;71.95;102349.09;4935109;29;8862;-71
2021/11/18 03:56:39;;;;;;;;;112.25;91.50;;;;;-3.05;72.16;102347.88;4935531;29;8851;-71
2021/11/18 03:59:37;;;;;;;;;100.00;78.50;;;;;-3.08;71.52;102349.91;4934643;29;9615;-72
2021/11/18 04:02:33;;;;;;;;;105.00;84.50;;;;;-3.20;72.22;102356.94;4916918;29;8859;-72
2021/11/18 04:05:29;;;;;;;;;111.75;84.50;;;;;-3.18;72.11;102360.28;4915970;29;8935;-73
2021/11/18 04:08:25;;;;;;;;;92.50;75.25;;;;;-3.34;72.56;102354.34;4916372;29;8844;-71
2021/11/18 04:11:20;;;;;;;;;105.00;85.50;;;;;-3.40;72.97;102348.69;4929468;29;8830;-73
2021/11/18 04:14:17;;;;;;;;;95.00;75.25;;;;;-3.51;72.63;102353.81;4935600;29;8842;-73
2021/11/18 04:17:13;;;;;;;;;103.50;80.75;;;;;-3.41;72.72;102347.00;4934838;29;8846;-73
2021/11/18 04:20:11;;;;;;;;;107.50;86.75;;;;;-3.36;72.17;102354.56;4934256;29;8873;-71
2021/11/18 04:23:07;;;;;;;;;93.50;75.25;;;;;-3.43;71.61;102359.09;4934320;29;8839;-72
2021/11/18 04:25:50;;;;;;;;;107.00;89.75;;;;;-3.32;71.86;102358.50;4931898;29;8858;-72
2021/11/18 04:28:46;;;;;;;;;110.00;83.25;;;;;-3.41;71.83;102346.19;4919399;29;8829;-72
2021/11/18 04:31:42;;;;;;;;;105.25;81.00;;;;;-3.66;72.74;102353.91;4922368;29;8835;-72
2021/11/18 04:34:38;;;;;;;;;100.00;76.50;;;;;-3.65;72.13;102353.72;4938704;29;8862;-71
2021/11/18 04:37:34;;;;;;;;;91.00;71.50;;;;;-3.61;72.40;102353.31;4938321;29;9603;-72
2021/11/18 04:40:32;;;;;;;;;105.25;81.00;;;;;-3.70;73.23;102358.03;4938360;29;8925;-72
2021/11/18 04:43:29;;;;;;;;;106.75;78.50;;;;;-3.54;71.97;102352.31;4938336;29;8932;-72
2021/11/18 04:46:25;;;;;;;;;97.50;78.00;;;;;-3.57;72.79;102354.59;4937847;29;8835;-72
2021/11/18 04:49:21;;;;;;;;;100.50;78.75;;;;;-3.74;72.75;102356.75;4938777;29;8869;-72
2021/11/18 04:52:18;;;;;;;;;100.50;77.50;;;;;-3.66;73.34;102359.31;4938202;29;8857;-71
2021/11/18 04:55:16;;;;;;;;;104.50;82.00;;;;;-3.46;72.44;102354.88;4937817;29;8835;-71
2021/11/18 04:58:13;;;;;;;;;91.75;72.75;;;;;-3.69;72.96;102359.69;4938286;29;8929;-72
2021/11/18 05:01:11;;;;;;;;;94.50;74.25;;;;;-3.70;73.18;102360.72;4938786;29;9037;-72
2021/11/18 05:04:09;;;;;;;;;98.25;75.25;;;;;-3.50;72.50;102360.91;4937547;29;8960;-71
2021/11/18 05:07:05;;;;;;;;;99.00;75.25;;;;;-3.40;71.75;102364.09;4936959;29;8846;-72
2021/11/18 05:10:00;;;;;;;;;99.50;77.50;;;;;-3.54;72.75;102357.72;4937741;29;8941;-72
2021/11/18 05:12:56;;;;;;;;;99.75;76.25;;;;;-3.50;72.54;102359.03;4935832;29;8945;-73
2021/11/18 05:15:54;;;;;;;;;101.25;78.00;;;;;-3.48;72.77;102361.53;4936764;29;8842;-73
2021/11/18 05:18:36;;;;;;;;;99.75;75.50;;;;;-3.15;72.68;102357.16;4938443;29;8862;-73
2021/11/18 05:21:32;;;;;;;;;99.50;77.00;;;;;-2.87;73.12;102359.00;4924881;29;8866;-73
2021/11/18 05:24:28;;;;;;;;;94.25;75.75;;;;;-2.91;73.60;102360.44;4937214;29;8878;-72
2021/11/18 05:26:55;;;;;;;;;99.50;75.75;;;;;-2.76;73.42;102358.44;4921445;29;8870;-73
2021/11/18 05:29:52;;;;;;;;;107.50;81.25;;;;;-2.71;72.81;102361.34;4925464;29;8858;-73
2021/11/18 05:32:47;;;;;;;;;101.75;77.25;;;;;-2.55;72.95;102357.44;4937137;29;8851;-73
2021/11/18 05:35:45;;;;;;;;;92.00;74.00;;;;;-2.53;73.16;102358.94;4936300;29;8866;-73
2021/11/18 05:38:41;;;;;;;;;102.50;77.75;;;;;-2.41;72.75;102350.19;4936436;29;8834;-72
2021/11/18 05:41:36;;;;;;;;;103.25;75.75;;;;;-2.33;72.71;102358.16;4936649;29;8930;-73
2021/11/18 05:44:32;;;;;;;;;147.75;123.75;;;;;-2.28;72.72;102355.66;4924323;29;8831;-71
2021/11/18 05:47:00;;;;;;;;;108.75;81.50;;;;;-2.19;72.84;102369.84;4937855;29;8969;-71
2021/11/18 05:49:55;;;;;;;;;96.50;76.25;;;;;-2.08;72.37;102366.53;4936784;29;8910;-70
2021/11/18 05:52:22;;;;;;;;;97.50;76.00;;;;;-1.83;71.89;102381.19;4937072;29;8869;-71
2021/11/18 05:54:50;;;;;;;;;96.50;75.75;;;;;-1.79;70.49;102379.72;4937133;29;8873;-71
2021/11/18 05:57:46;;;;;;;;;111.25;82.50;;;;;-1.79;70.92;102377.00;4937025;29;8925;-71
2021/11/18 06:00:43;;;;;;;;;138.50;116.50;;;;;-1.72;70.98;102374.31;4936688;29;8843;-72
2021/11/18 06:03:39;;;;;;;;;160.75;124.50;;;;;-1.53;70.48;102376.19;4936644;29;8894;-72
2021/11/18 06:06:34;;;;;;;;;152.75;124.25;;;;;-1.41;70.37;102379.09;4937473;29;8834;-72
2021/11/18 06:09:30;;;;;;;;;124.25;110.50;;;;;-1.31;69.77;102381.38;4936596;29;8850;-71
2021/11/18 06:12:26;;;;;;;;;140.25;114.25;;;;;-1.44;69.26;102376.81;4937210;29;8851;-71
2021/11/18 06:15:22;;;;;;;;;114.25;97.75;;;;;-1.19;68.08;102382.41;4934627;29;8862;-71
2021/11/18 06:18:18;;;;;;;;;116.50;88.00;;;;;-1.05;67.12;102381.34;4936020;29;8874;-71
2021/11/18 06:21:00;;;;;;;;;115.50;100.00;;;;;-1.09;67.39;102384.69;4936403;29;9580;-72
2021/11/18 06:23:57;;;;;;;;;118.50;100.50;;;;;-1.01;67.63;102377.13;4917300;29;8848;-72
2021/11/18 06:26:55;;;;;;;;;115.75;98.25;;;;;-1.01;67.85;102379.84;4917746;29;8860;-71
2021/11/18 06:29:51;;;;;;;;;107.75;77.50;;;;;-1.00;67.59;102380.69;4924980;29;8862;-71
2021/11/18 06:32:47;;;;;;;;;91.75;73.25;;;;;-0.95;67.27;102367.31;4935616;29;8827;-69
2021/11/18 06:35:16;;;;;;;;;76.75;61.75;;;;;-0.99;66.78;102361.50;4937042;29;8846;-70
2021/11/18 06:37:44;;;;;;;;;88.75;68.00;;;;;-0.90;67.08;102357.50;4936261;29;8853;-70
2021/11/18 06:40:13;;;;;;;;;80.75;67.25;;;;;-0.54;66.91;102360.69;4936819;29;8884;-71
2021/11/18 06:43:08;;;;;;;;;79.75;65.00;;;;;-0.51;66.00;102362.97;4936697;29;8870;-71
2021/11/18 06:46:05;;;;;;;;;54.67;48.33;;;;;-0.46;65.74;102364.00;4935889;29;8850;-70
2021/11/18 06:49:01;;;;;;;;;54.25;44.50;;;;;-0.17;65.21;102365.28;4935655;29;8862;-70
2021/11/18 06:51:28;;;;;;;;;67.00;53.67;;;;;0.12;64.13;102357.56;4936427;29;8885;-70
2021/11/18 06:54:24;;;;;;;;;70.33;57.00;;;;;-0.01;64.49;102366.66;4935345;29;8842;-70
2021/11/18 06:57:20;;;;;;;;;70.00;54.67;;;;;0.38;63.51;102360.06;4916507;29;8887;-70
2021/11/18 06:59:47;;;;;;;;;79.67;59.67;;;;;0.49;62.88;102355.81;4926384;29;8929;-70
2021/11/18 07:02:44;;;;;;;;;48.67;45.67;;;;;0.41;62.48;102365.09;4935551;29;8846;-70
2021/11/18 07:05:40;;;;;;;;;111.00;68.33;;;;;0.42;63.02;102349.59;4935307;29;8862;-70
2021/11/18 07:08:36;;;;;;;;;62.67;48.67;;;;;0.65;62.48;102349.78;4935573;29;8941;-70
2021/11/18 07:11:05;;;;;;;;;68.67;56.33;;;;;0.69;62.06;102345.59;4936779;29;8838;-69
2021/11/18 07:13:36;;;;;;;;;55.67;47.67;;;;;0.68;61.62;102335.72;4936313;29;8835;-69
2021/11/18 07:16:33;;;;;;;;;67.00;49.67;;;;;0.80;61.84;102341.25;4935242;29;9650;-69
2021/11/18 07:19:28;;;;;;;;;66.67;51.67;;;;;1.01;60.97;102338.09;4935386;29;8977;-69
2021/11/18 07:21:56;;;;;;;;;60.00;51.33;;;;;1.44;60.59;102333.59;4935899;29;8858;-67
2021/11/18 07:24:52;;;;;;;;;57.67;52.67;;;;;1.28;59.89;102335.06;4935169;29;8964;-68
2021/11/18 07:27:49;;;;;;;;;68.33;56.00;;;;;1.28;59.92;102330.44;4934723;29;8846;-69
2021/11/18 07:30:47;;;;;;;;;59.33;48.67;;;;;1.49;59.48;102337.31;4934078;29;8948;-70
2021/11/18 07:33:43;;;;;;;;;45.33;40.33;;;;;1.75;58.91;102343.44;4935225;29;8830;-69
2021/11/18 07:36:38;;;;;;;;;65.33;53.67;;;;;1.80;59.10;102338.13;4935164;29;8954;-69
2021/11/18 07:39:34;;;;;;;;;50.67;47.33;;;;;2.04;57.95;102330.84;4934964;29;8835;-69
2021/11/18 07:42:31;;;;;;;;;60.00;50.33;;;;;2.12;58.17;102330.50;4935946;29;9636;-69
2021/11/18 07:45:27;;;;;;;;;46.33;43.33;;;;;1.98;58.21;102337.22;4934766;29;8823;-69
2021/11/18 07:48:22;;;;;;;;;78.67;63.67;;;;;2.43;57.76;102338.38;4922524;29;8882;-68
2021/11/18 07:50:50;;;;;;;;;79.33;63.67;;;;;2.56;57.14;102337.31;4935910;29;8917;-68
2021/11/18 07:53:46;;;;;;;;;86.00;64.67;;;;;2.76;57.11;102337.81;4935648;29;8839;-68
2021/11/18 07:56:16;;;;;;;;;71.33;55.33;;;;;3.03;57.17;102340.84;4936039;29;8953;-69
2021/11/18 07:59:15;;;;;;;;;69.33;55.33;;;;;3.22;56.34;102329.75;4933985;29;8842;-68
2021/11/18 08:02:10;;;;;;;;;70.67;56.00;;;;;3.54;56.33;102317.28;4934155;29;8890;-70
2021/11/18 08:05:07;;;;;;;;;99.33;75.67;;;;;3.55;55.70;102316.22;4935411;29;8847;-69
2021/11/18 08:08:04;;;;;;;;;72.00;56.33;;;;;3.92;55.09;102321.28;4934372;29;8921;-71
2021/11/18 08:11:00;;;;;;;;;65.00;51.00;;;;;3.86;54.69;102311.31;4934941;29;8850;-69
2021/11/18 08:13:56;;;;;;;;;69.00;57.00;;;;;4.17;54.79;102308.03;4933761;29;8834;-69
2021/11/18 08:16:24;;;;;;;;;90.00;69.33;;;;;4.11;54.19;102306.28;4917769;29;8859;-70
2021/11/18 08:19:20;;;;;;;;;58.00;47.67;;;;;4.42;53.20;102302.13;4932205;29;8846;-71
2021/11/18 08:22:16;;;;;;;;;68.33;56.00;;;;;4.44;53.41;102307.34;4933775;29;8925;-70
2021/11/18 08:25:15;;;;;;;;;62.00;52.33;;;;;4.63;52.72;102308.75;4934116;29;8851;-71
2021/11/18 08:28:10;;;;;;;;;53.25;47.50;;;;;4.74;52.00;102306.97;4921131;29;11659;-70
2021/11/18 08:31:06;;;;;;;;;65.67;49.33;;;;;5.02;52.22;102301.31;4934172;29;11557;-70
2021/11/18 08:34:02;;;;;;;;;46.00;43.67;;;;;5.33;50.97;102292.66;4924869;29;11626;-71
2021/11/18 08:36:58;;;;;;;;;53.50;44.25;;;;;5.56;49.91;102301.41;4933612;29;11587;-69
2021/11/18 08:39:31;;;;;;;;;49.50;43.00;;;;;5.59;49.18;102300.88;4925654;29;11563;-70
2021/11/18 08:42:27;;;;;;;;;44.00;39.25;;;;;5.69;48.83;102300.19;4924555;29;12494;-70
2021/11/18 08:45:23;;;;;;;;;42.25;35.00;;;;;6.04;48.34;102302.47;4915055;29;11673;-71
2021/11/18 08:48:20;;;;;;;;;38.75;36.50;;;;;6.03;46.38;102300.81;4933697;29;11561;-70
2021/11/18 08:51:22;;;;;;;;;46.50;41.75;;;;;6.27;46.59;102300.47;4926887;29;11556;-71
2021/11/18 08:54:22;;;;;;;;;50.25;43.50;;;;;6.45;45.78;102285.50;4920487;29;12386;-71
2021/11/18 08:57:21;;;;;;;;;58.50;43.50;;;;;6.55;45.70;102280.88;4933695;29;11572;-70
2021/11/18 09:00:25;;;;;;;;;24.25;21.75;;;;;7.04;44.24;102280.59;4931591;29;11595;-71
2021/11/18 09:03:24;;;;;;;;;32.50;32.50;;;;;7.21;42.54;102269.41;4917136;29;12296;-70
2021/11/18 09:06:21;;;;;;;;;51.00;40.00;;;;;7.45;43.06;102262.31;4924060;29;11572;-71
2021/11/18 09:09:22;;;;;;;;;19.50;17.75;;;;;7.57;41.94;102258.47;4933866;29;11531;-71
2021/11/18 09:12:17;;;;;;;;;27.75;24.25;;;;;7.66;40.78;102254.06;4937669;29;11572;-71
2021/11/18 09:15:16;;;;;;;;;17.00;15.50;;;;;7.62;41.77;102255.72;4924865;29;11544;-71
2021/11/18 09:18:12;;;;;;;;;47.50;42.00;;;;;8.09;42.56;102250.78;4936806;29;12287;-72
2021/11/18 09:20:55;;;;;;;;;54.00;45.50;;;;;8.17;42.68;102248.59;4936147;29;11689;-72
2021/11/18 09:23:55;;;;;;;;;39.25;31.25;;;;;8.02;43.42;102239.22;4923824;29;11563;-72
2021/11/18 09:26:57;;;;;;;;;26.00;26.00;;;;;8.34;43.02;102243.59;4936006;28;11605;-72
2021/11/18 09:29:54;;;;;;;;;24.50;24.25;;;;;8.25;42.96;102242.50;4936521;29;11534;-72
2021/11/18 09:32:28;;;;;;;;;25.25;25.00;;;;;8.28;42.20;102233.66;4938207;29;11572;-71
2021/11/18 09:35:46;;;;;;;;;42.75;39.50;;;;;8.16;43.44;102233.16;4925429;29;11570;-71
2021/11/18 09:38:21;;;;;;;;;35.50;34.25;;;;;8.54;43.19;102229.81;4937759;29;11539;-71
2021/11/18 09:41:26;;;;;;;;;26.50;26.50;;;;;8.87;43.91;102222.78;4937458;29;11553;-71
2021/11/18 09:44:57;;;;;;;;;31.00;28.50;;;;;8.92;43.24;102219.19;4936307;29;11521;-73
2021/11/18 09:47:58;;;;;;;;;27.50;27.50;;;;;9.07;43.96;102216.38;4908147;29;11568;-73
2021/11/18 09:50:53;;;;;;;;;76.00;51.50;;;;;8.90;44.81;102215.91;4933604;29;11541;-73
2021/11/18 09:54:28;;;;;;;;;24.00;23.50;;;;;9.19;44.29;102210.50;4933885;29;11686;-74
2021/11/18 09:57:40;;;;;;;;;63.00;49.50;;;;;9.44;44.24;102209.53;4935911;29;11561;-75
2021/11/18 10:00:51;;;;;;;;;29.25;28.50;;;;;9.24;44.10;102199.44;4935822;29;11602;-75
2021/11/18 10:04:22;;;;;;;;;25.75;25.75;;;;;9.63;43.92;102187.56;4936143;29;11515;-76
2021/11/18 10:07:36;;;;;;;;;14.75;12.50;;;;;10.06;44.72;102185.81;4936553;29;11538;-73
2021/11/18 10:10:50;;;;;;;;;21.50;21.50;;;;;9.89;45.14;102188.16;4937168;29;11482;-74
2021/11/18 10:13:38;;;;;;;;;23.00;23.00;;;;;10.12;43.93;102187.44;4936878;29;11506;-74
2021/11/18 10:16:22;;;;;;;;;24.75;24.75;;;;;10.18;44.05;102183.47;4936039;29;11478;-74
2021/11/18 10:19:27;;;;;;;;;22.00;19.00;;;;;9.14;45.99;102167.19;4935702;29;11502;-74
2021/11/18 10:21:56;;;;;;;;;23.00;22.00;;;;;9.76;44.95;102167.56;4936166;29;11477;-74
2021/11/18 10:24:28;;;;;;;;;24.75;23.50;;;;;9.87;44.94;102154.47;4929164;29;11477;-75
2021/11/18 10:27:37;;;;;;;;;24.50;24.50;;;;;9.89;44.50;102143.97;4918004;29;11500;-74
2021/11/18 10:30:38;;;;;;;;;22.00;22.00;;;;;10.09;44.74;102143.75;4916776;29;11595;-72
2021/11/18 10:34:03;;;;;;;;;19.00;18.75;;;;;9.98;44.56;102148.59;4919113;29;11603;-71
2021/11/18 10:37:15;;;;;;;;;21.25;21.25;;;;;9.61;45.06;102137.31;4916895;29;11601;-71
2021/11/18 10:40:17;;;;;;;;;16.75;16.75;;;;;9.93;44.98;102129.28;4917502;29;11490;-71
2021/11/18 10:43:17;;;;;;;;;75.25;52.75;;;;;10.57;44.00;102132.72;4932006;29;11321;-71
2021/11/18 10:46:19;;;;;;;;;17.50;17.50;;;;;10.17;43.86;102128.47;4917263;29;11569;-71
2021/11/18 10:49:27;;;;;;;;;11.25;11.25;;;;;9.60;44.43;102125.44;4916762;29;11578;-71
2021/11/18 10:52:32;;;;;;;;;12.25;9.75;;;;;9.69;44.83;102122.88;4916807;29;12120;-72
2021/11/18 10:55:35;;;;;;;;;24.75;23.75;;;;;10.15;43.60;102120.47;4916272;29;11561;-72
2021/11/18 10:58:37;;;;;;;;;20.25;20.25;;;;;9.77;44.77;102113.16;4915810;29;11483;-71
2021/11/18 11:01:37;;;;;;;;;23.50;23.50;;;;;9.99;44.05;102111.53;4916659;29;11504;-71
2021/11/18 11:04:39;;;;;;;;;29.25;29.25;;;;;9.67;45.54;102106.59;4916725;29;11526;-71
2021/11/18 11:07:42;;;;;;;;;29.50;29.00;;;;;9.95;45.15;102104.09;4916369;29;11528;-70
2021/11/18 11:10:48;;;;;;;;;23.75;23.75;;;;;10.22;44.47;102095.25;4916125;29;11503;-71
2021/11/18 11:14:22;;;;;;;;;22.50;22.50;;;;;10.22;43.60;102096.09;4916190;29;11509;-72
2021/11/18 11:17:24;;;;;;;;;21.25;21.25;;;;;10.13;44.11;102095.06;4873913;29;11370;-72
2021/11/18 11:20:42;;;;;;;;;27.75;24.25;;;;;10.39;44.05;102084.56;4872620;29;11204;-71
2021/11/18 11:23:52;;;;;;;;;20.50;17.75;;;;;10.50;43.03;102085.25;4915862;29;11519;-71
2021/11/18 11:26:56;;;;;;;;;34.50;27.50;;;;;10.19;43.61;102096.66;4927406;29;11464;-71
2021/11/18 11:30:22;;;;;;;;;33.00;27.75;;;;;10.06;44.43;102091.84;4923628;29;11497;-75
2021/11/18 11:33:24;;;;;;;;;27.25;26.75;;;;;10.00;44.02;102076.41;4934057;29;11505;-76
2021/11/18 11:36:31;;;;;;;;;43.00;36.75;;;;;10.34;43.47;102078.25;4934319;29;12276;-76
2021/11/18 11:39:37;;;;;;;;;29.75;29.75;;;;;10.34;43.35;102079.09;4933500;29;11576;-76
2021/11/18 11:42:50;;;;;;;;;26.25;26.25;;;;;10.60;42.14;102074.06;4934048;29;11516;-75
2021/11/18 11:45:56;;;;;;;;;29.50;29.50;;;;;10.47;42.50;102072.00;4935055;29;11483;-75
2021/11/18 11:48:58;;;;;;;;;21.00;20.50;;;;;10.46;42.21;102075.91;4934187;29;11498;-73
2021/11/18 11:51:46;;;;;;;;;19.75;19.75;;;;;10.10;43.20;102073.53;4919633;29;11481;-73
2021/11/18 11:55:01;;;;;;;;;34.00;30.50;;;;;10.21;42.82;102068.72;4933048;29;11554;-74
2021/11/18 11:58:01;;;;;;;;;32.00;27.00;;;;;10.43;42.73;102059.91;4925847;29;11489;-73
2021/11/18 12:01:15;;;;;;;;;27.50;27.50;;;;;10.65;41.97;102059.31;4924228;29;11557;-74
2021/11/18 12:04:50;;;;;;;;;20.25;20.00;;;;;10.09;43.12;102055.31;4934207;29;11587;-72
2021/11/18 12:07:53;;;;;;;;;22.75;22.75;;;;;10.20;42.87;102039.44;4861773;29;11331;-72
2021/11/18 12:11:04;;;;;;;;;29.00;27.00;;;;;10.22;42.69;102040.81;4912345;29;11467;-74
2021/11/18 12:14:24;;;;;;;;;24.00;22.50;;;;;9.78;43.67;102037.41;4934023;29;11545;-74
2021/11/18 12:17:31;;;;;;;;;19.25;19.25;;;;;9.72;43.60;102034.69;4921419;29;11163;-73
2021/11/18 12:20:32;;;;;;;;;13.25;13.25;;;;;9.74;43.87;102034.44;4933536;29;11952;-73
2021/11/18 12:24:02;;;;;;;;;20.25;19.75;;;;;9.97;43.73;102039.16;4935063;29;11461;-72
2021/11/18 12:27:20;;;;;;;;;18.50;18.00;;;;;9.71;43.99;102037.75;4934968;29;11544;-70
2021/11/18 12:30:51;;;;;;;;;21.25;21.25;;;;;9.37;44.47;102033.13;4924674;29;11518;-69
2021/11/18 12:33:53;;;;;;;;;16.00;15.75;;;;;9.34;44.43;102035.63;4913587;29;11647;-70
2021/11/18 12:37:21;;;;;;;;;20.50;20.50;;;;;9.52;44.13;102034.09;4935379;29;11517;-70
2021/11/18 12:40:12;;;;;;;;;20.50;20.50;;;;;9.29;44.67;102041.22;4934968;29;11508;-69
2021/11/18 12:43:00;;;;;;;;;12.00;12.00;;;;;9.06;45.15;102053.81;4924861;29;11487;-69
2021/11/18 12:46:34;;;;;;;;;18.25;16.00;;;;;9.24;44.48;102050.34;4936356;29;11480;-70
2021/11/18 12:49:46;;;;;;;;;17.25;17.00;;;;;9.07;45.01;102038.91;4927107;29;11484;-70
2021/11/18 12:52:30;;;;;;;;;20.75;18.00;;;;;9.05;45.16;102030.09;4924990;29;11462;-71
2021/11/18 12:55:42;;;;;;;;;17.50;17.00;;;;;8.95;44.77;102030.97;4936697;29;11487;-71
2021/11/18 12:58:25;;;;;;;;;18.25;17.25;;;;;8.86;44.95;102028.00;4916392;29;11579;-71
2021/11/18 13:01:20;;;;;;;;;12.25;11.50;;;;;8.94;44.26;102021.06;4927268;29;11474;-71
2021/11/18 13:03:59;;;;;;;;;13.75;13.50;;;;;8.80;44.45;102014.53;4938415;29;11502;-70
2021/11/18 13:06:29;;;;;;;;;18.00;16.75;;;;;8.88;44.20;102017.50;4938233;29;11478;-71
2021/11/18 13:09:10;;;;;;;;;12.50;12.50;;;;;8.99;43.88;102012.75;4938305;29;11488;-71
2021/11/18 13:12:25;;;;;;;;;12.25;11.50;;;;;8.90;44.11;102006.22;4937356;29;11466;-71
2021/11/18 13:15:24;;;;;;;;;8.00;8.00;;;;;8.78;43.69;102014.00;4919821;29;12258;-71
2021/11/18 13:18:25;;;;;;;;;15.50;15.50;;;;;8.65;45.00;102001.69;4936881;29;11478;-70
2021/11/18 13:21:25;;;;;;;;;14.00;13.25;;;;;8.66;45.21;102010.78;4937083;29;11625;-70
2021/11/18 13:24:05;;;;;;;;;9.25;9.25;;;;;8.66;44.84;102005.25;4938445;29;11561;-70
2021/11/18 13:26:45;;;;;;;;;17.00;17.00;;;;;8.51;45.82;102004.28;4937897;29;11562;-69
2021/11/18 13:29:24;;;;;;;;;65.75;55.25;;;;;8.53;46.86;101998.47;4938273;29;11475;-69